Lopburi, Thailand
Current Conditions -  °F | °C
As of 1:00 PM on Friday 31 Oct 2014 (Local Time) from VTBD Reporting Station
Broken Clouds Broken Clouds  
Wind Chill: 91°   Ceiling: 30000
Heat Index: 100°   Visibility: 6mi
Dew Point: 73°   Wind: 7mph
Humidity: 55%   Direction: 360°N
Pressure: 29.77"   Gusts: NA
Location:  14.8°N, 100.62°E
Report Text: VTBD 310600Z 36006KT 310V040 9999 FEW020 BKN300 33/23 Q1008 NOSIG
Loading
Personal Weather Stations






























Interactive Weather Map
Tropical Storm Tracking
New forecast layout! Learn more

10-Day Weather Forecast

Advertisements
Track Severe Weather on mobile